METAR UND TAF INFORMATION
EKAH 210550Z AUTO 21003KT 9999NDV OVC009/// 12/11 Q1025

 FLUGHAFENKARTE

 RUNWAY INFORMATION
Runway 10L Runway length 9111 ft Runway width 75 ft
Runway elevation 79 ft Runway displaced threshold 0 ft Runway heading 100
Runway 28R Runway length 9111 ft Runway width 75 ft
Runway elevation 78 ft Runway displaced threshold 0 ft Runway heading 280
Runway 10R Runway length 8865 ft Runway width 148 ft
Runway elevation 81 ft Runway displaced threshold 0 ft Runway heading 100
Runway 28L Runway length 8865 ft Runway width 148 ft
Runway elevation 75 ft Runway displaced threshold 0 ft Runway heading 280

 AIRPORT FREQUENCIES
Type APP Name APP Frequency 119.275 MHZ
Type MISC Name HANDLING Frequency 130.225 MHZ
Type MISC Name AIRPORT OF Frequency 130.225 MHZ
Type TWR Name TWR Frequency 118.525 MHZ

 AIRPORT NEAR NAVIGATION AIDS
Type NDB Name Aarhus Frequency 324 KHZ
Type NDB Name Aarhus Frequency 374 KHZ



Aktuelle Version 4.2.2: Changelog

Impressum | Datenschutzerklärung

Virtual Airlines Manager